Time;durP1;ratioP1;P1;durP2;ratioP2;P2;SDS_P1;SDS_P2;PMS_P1;PMS_P2;Temp;Humidity;BMP_temperature;BMP_pressure;BME280_temperature;BME280_humidity;BME280_pressure;Samples;Min_cycle;Max_cycle;Signal;HPM_P1;HPM_P2
2021/07/31 00:00:07;;;;;;;5.88;2.00;;;21.10;74.20;;;;;;5054048;28;20035;-67
2021/07/31 00:02:33;;;;;;;3.75;1.70;;;21.10;74.10;;;;;;5053878;28;20043;-67
2021/07/31 00:04:58;;;;;;;6.07;1.80;;;21.10;74.30;;;;;;5065752;28;20016;-67
2021/07/31 00:07:24;;;;;;;6.47;1.60;;;21.10;74.20;;;;;;5073905;28;20393;-67
2021/07/31 00:09:49;;;;;;;4.28;1.55;;;21.10;74.10;;;;;;5071740;28;20071;-68
2021/07/31 00:12:14;;;;;;;5.15;1.63;;;21.10;73.90;;;;;;5058614;28;20033;-67
2021/07/31 00:14:40;;;;;;;6.88;1.52;;;21.10;74.00;;;;;;5053550;28;20041;-66
2021/07/31 00:17:07;;;;;;;5.28;1.50;;;21.10;73.70;;;;;;5053754;28;20096;-67
2021/07/31 00:19:33;;;;;;;4.15;1.40;;;21.00;73.40;;;;;;5053671;28;20025;-67
2021/07/31 00:21:59;;;;;;;4.80;1.60;;;21.00;73.00;;;;;;5067290;28;20040;-67
2021/07/31 00:24:24;;;;;;;5.28;1.40;;;21.00;73.10;;;;;;5073368;28;20028;-67
2021/07/31 00:26:50;;;;;;;3.58;1.30;;;21.00;73.00;;;;;;5072201;28;20017;-67
2021/07/31 00:29:16;;;;;;;4.03;1.40;;;21.00;73.10;;;;;;5067973;28;20460;-67
2021/07/31 00:31:41;;;;;;;3.03;1.25;;;21.00;73.00;;;;;;5053340;28;20033;-67
2021/07/31 00:34:07;;;;;;;5.65;1.50;;;21.00;72.80;;;;;;5052116;28;20171;-67
2021/07/31 00:36:32;;;;;;;4.20;1.55;;;21.00;72.70;;;;;;5057252;28;20028;-68
2021/07/31 00:38:58;;;;;;;6.10;1.50;;;20.90;72.70;;;;;;5073351;28;20028;-67
2021/07/31 00:41:24;;;;;;;3.35;1.30;;;20.90;72.70;;;;;;5073149;28;20024;-67
2021/07/31 00:43:49;;;;;;;3.80;1.27;;;20.90;72.30;;;;;;5072016;28;20020;-67
2021/07/31 00:46:15;;;;;;;5.18;1.35;;;20.90;72.10;;;;;;5070300;28;20025;-67
2021/07/31 00:48:41;;;;;;;4.40;1.20;;;20.90;71.00;;;;;;5054216;28;20025;-67
2021/07/31 00:51:07;;;;;;;5.60;1.30;;;20.80;71.20;;;;;;5053075;28;20104;-68
2021/07/31 00:53:33;;;;;;;2.17;1.00;;;20.90;70.60;;;;;;5052752;28;20124;-67
2021/07/31 00:55:59;;;;;;;6.93;1.50;;;20.80;70.50;;;;;;5052712;28;20389;-67
2021/07/31 00:58:26;;;;;;;4.38;1.40;;;20.80;70.60;;;;;;5052969;28;20484;-67
2021/07/31 01:00:52;;;;;;;6.28;1.30;;;20.80;70.60;;;;;;5052871;28;20371;-67
2021/07/31 01:03:17;;;;;;;2.50;1.17;;;20.80;70.50;;;;;;5062888;28;20027;-67
2021/07/31 01:05:43;;;;;;;4.20;1.20;;;20.80;70.30;;;;;;5060886;28;20108;-67
2021/07/31 01:08:09;;;;;;;5.57;1.20;;;20.80;70.30;;;;;;5052717;28;20112;-67
2021/07/31 01:10:34;;;;;;;3.80;1.25;;;20.80;70.70;;;;;;5052609;28;20029;-67
2021/07/31 01:13:02;;;;;;;3.53;1.35;;;20.80;70.30;;;;;;5052786;28;20385;-67
2021/07/31 01:15:27;;;;;;;4.18;1.30;;;20.80;69.90;;;;;;5052169;28;20040;-67
2021/07/31 01:17:53;;;;;;;3.92;1.00;;;20.80;69.40;;;;;;5053714;28;20025;-67
2021/07/31 01:20:19;;;;;;;4.07;0.95;;;20.80;69.10;;;;;;5051222;28;20064;-67
2021/07/31 01:22:44;;;;;;;4.60;1.65;;;20.70;69.30;;;;;;5052354;28;20033;-67
2021/07/31 01:25:11;;;;;;;3.67;1.27;;;20.70;68.30;;;;;;5052167;28;20029;-66
2021/07/31 01:27:39;;;;;;;3.65;1.50;;;20.70;68.10;;;;;;5063035;28;20051;-67
2021/07/31 01:30:05;;;;;;;4.28;1.20;;;20.70;67.30;;;;;;5070874;28;20029;-67
2021/07/31 01:32:31;;;;;;;2.95;1.25;;;20.70;68.00;;;;;;5072271;28;20040;-66
2021/07/31 01:34:56;;;;;;;4.82;1.10;;;20.70;68.20;;;;;;5068572;28;20033;-67
2021/07/31 01:37:22;;;;;;;3.65;1.10;;;20.70;67.40;;;;;;5060769;28;20098;-67
2021/07/31 01:39:47;;;;;;;4.50;1.13;;;20.60;67.40;;;;;;5050902;28;20124;-67
2021/07/31 01:42:14;;;;;;;4.70;1.20;;;20.60;67.40;;;;;;5050809;28;20679;-67
2021/07/31 01:44:39;;;;;;;6.10;1.27;;;20.60;67.40;;;;;;5051851;28;20075;-67
2021/07/31 01:47:05;;;;;;;5.05;1.13;;;20.60;67.00;;;;;;5055037;28;20028;-67
2021/07/31 01:49:31;;;;;;;4.82;1.10;;;20.60;66.70;;;;;;5051758;28;20051;-67
2021/07/31 01:51:57;;;;;;;3.97;1.15;;;20.60;66.90;;;;;;5051816;28;20107;-67
2021/07/31 01:54:22;;;;;;;5.78;1.30;;;20.60;67.00;;;;;;5050445;28;20108;-67
2021/07/31 01:56:48;;;;;;;6.90;1.20;;;20.60;67.70;;;;;;5066080;28;20028;-67
2021/07/31 01:59:14;;;;;;;3.38;1.13;;;20.60;67.20;;;;;;5064473;28;20028;-67
2021/07/31 02:01:40;;;;;;;3.85;1.23;;;20.50;67.30;;;;;;5051719;28;20025;-67
2021/07/31 02:04:06;;;;;;;6.07;1.38;;;20.50;67.30;;;;;;5049164;28;20278;-66
2021/07/31 02:06:31;;;;;;;4.43;1.00;;;20.50;67.40;;;;;;5067862;28;20482;-67
2021/07/31 02:08:57;;;;;;;3.97;1.13;;;20.50;67.30;;;;;;5063282;28;20021;-67
2021/07/31 02:11:22;;;;;;;3.53;1.00;;;20.50;67.30;;;;;;5071736;28;20114;-67
2021/07/31 02:13:48;;;;;;;4.53;1.30;;;20.50;67.20;;;;;;5070451;28;20070;-67
2021/07/31 02:16:24;;;;;;;4.82;1.20;;;20.50;66.90;;;;;;5071484;28;20025;-67
2021/07/31 02:18:51;;;;;;;4.88;1.20;;;20.50;67.10;;;;;;5070405;28;20028;-67
2021/07/31 02:21:17;;;;;;;4.28;1.33;;;20.50;67.10;;;;;;5071150;28;20474;-67
2021/07/31 02:23:42;;;;;;;5.80;1.40;;;20.50;66.80;;;;;;5070346;28;20023;-68
2021/07/31 02:26:08;;;;;;;2.45;1.02;;;20.50;66.50;;;;;;5070031;28;20027;-67
2021/07/31 02:28:33;;;;;;;4.03;1.33;;;20.50;66.70;;;;;;5071653;28;20103;-67
2021/07/31 02:30:59;;;;;;;5.18;1.00;;;20.40;66.90;;;;;;5070017;28;20024;-67
2021/07/31 02:33:24;;;;;;;6.50;1.35;;;20.40;66.90;;;;;;5071566;28;20521;-67
2021/07/31 02:35:50;;;;;;;5.15;1.50;;;20.40;66.90;;;;;;5070010;28;20028;-67
2021/07/31 02:38:15;;;;;;;5.45;1.13;;;20.40;67.30;;;;;;5070267;28;20017;-67
2021/07/31 02:40:41;;;;;;;9.23;0.95;;;20.40;66.70;;;;;;5071709;28;20025;-67
2021/07/31 02:43:06;;;;;;;2.60;1.02;;;20.40;66.70;;;;;;5071438;28;20029;-67
2021/07/31 02:45:34;;;;;;;2.92;1.13;;;20.40;66.90;;;;;;5069797;28;20024;-68
2021/07/31 02:48:01;;;;;;;4.80;1.00;;;20.40;67.00;;;;;;5071398;28;20028;-68
2021/07/31 02:50:28;;;;;;;5.43;1.35;;;20.40;66.90;;;;;;5070047;28;20020;-67
2021/07/31 02:52:53;;;;;;;3.85;1.17;;;20.40;66.80;;;;;;5071415;28;20082;-67
2021/07/31 02:55:19;;;;;;;3.58;1.25;;;20.30;66.70;;;;;;5069749;28;20028;-67
2021/07/31 02:57:44;;;;;;;4.95;1.40;;;20.30;66.70;;;;;;5070077;28;20402;-67
2021/07/31 03:00:10;;;;;;;5.43;1.13;;;20.30;66.80;;;;;;5070706;28;20024;-67
2021/07/31 03:02:37;;;;;;;2.35;1.00;;;20.30;66.80;;;;;;5049806;28;20032;-67
2021/07/31 03:05:03;;;;;;;4.13;1.15;;;20.30;67.00;;;;;;5064204;28;20401;-68
2021/07/31 03:07:28;;;;;;;3.80;1.00;;;20.30;66.80;;;;;;5069948;28;20486;-67
2021/07/31 03:09:54;;;;;;;2.85;1.38;;;20.30;66.80;;;;;;5069894;28;20027;-68
2021/07/31 03:12:20;;;;;;;1.90;1.08;;;20.30;67.10;;;;;;5052092;28;20032;-67
2021/07/31 03:14:45;;;;;;;4.18;1.35;;;20.30;66.80;;;;;;5050603;28;20040;-67
2021/07/31 03:17:10;;;;;;;3.90;1.17;;;20.30;66.70;;;;;;5051163;28;20021;-67
2021/07/31 03:19:36;;;;;;;5.47;1.30;;;20.20;66.60;;;;;;5051015;28;20029;-67
2021/07/31 03:22:04;;;;;;;3.90;1.02;;;20.20;66.70;;;;;;5050986;28;20036;-67
2021/07/31 03:24:30;;;;;;;5.05;1.23;;;20.20;66.90;;;;;;5055998;28;20048;-67
2021/07/31 03:26:56;;;;;;;3.33;1.08;;;20.20;66.90;;;;;;5069681;28;20060;-67
2021/07/31 03:29:21;;;;;;;4.72;1.08;;;20.30;66.80;;;;;;5070865;28;20090;-67
2021/07/31 03:31:50;;;;;;;4.70;1.10;;;20.20;66.90;;;;;;5071012;28;20032;-67
2021/07/31 03:34:16;;;;;;;3.83;0.93;;;20.20;66.90;;;;;;5068895;28;20029;-66
2021/07/31 03:36:41;;;;;;;4.43;1.10;;;20.20;67.00;;;;;;5054466;28;20051;-67
2021/07/31 03:39:07;;;;;;;7.20;1.70;;;20.20;67.10;;;;;;5054460;28;20108;-66
2021/07/31 03:41:33;;;;;;;3.75;1.20;;;20.10;67.10;;;;;;5053015;28;20052;-66
2021/07/31 03:43:58;;;;;;;3.38;1.08;;;20.10;67.10;;;;;;5059649;28;20031;-67
2021/07/31 03:46:24;;;;;;;6.18;1.20;;;20.10;67.30;;;;;;5074162;28;20142;-67
2021/07/31 03:48:49;;;;;;;3.15;1.05;;;20.10;67.10;;;;;;5073027;28;20017;-67
2021/07/31 03:51:15;;;;;;;3.45;1.30;;;20.10;67.10;;;;;;5072980;28;20418;-67
2021/07/31 03:53:40;;;;;;;4.53;1.13;;;20.10;67.30;;;;;;5063969;28;20068;-67
2021/07/31 03:56:08;;;;;;;3.08;1.02;;;20.10;67.40;;;;;;5052487;28;20537;-67
2021/07/31 03:58:33;;;;;;;3.50;1.13;;;20.10;67.60;;;;;;5072326;28;20055;-67
2021/07/31 04:00:59;;;;;;;4.32;1.13;;;20.10;67.30;;;;;;5059499;28;20095;-67
2021/07/31 04:03:24;;;;;;;3.45;1.08;;;20.10;67.00;;;;;;5054095;28;20029;-67
2021/07/31 04:05:50;;;;;;;4.47;1.30;;;20.10;67.40;;;;;;5068484;28;20028;-67
2021/07/31 04:08:16;;;;;;;4.53;1.20;;;20.10;67.50;;;;;;5065517;28;20430;-67
2021/07/31 04:10:41;;;;;;;6.15;1.60;;;20.10;67.50;;;;;;5055215;28;20021;-67
2021/07/31 04:13:08;;;;;;;3.05;1.20;;;20.10;67.40;;;;;;5053901;28;20041;-67
2021/07/31 04:15:33;;;;;;;2.47;1.00;;;20.10;67.60;;;;;;5052314;28;20057;-67
2021/07/31 04:17:59;;;;;;;4.32;1.52;;;20.00;67.40;;;;;;5054262;28;20497;-67
2021/07/31 04:20:24;;;;;;;2.97;1.20;;;20.00;67.80;;;;;;5053699;28;20033;-68
2021/07/31 04:22:50;;;;;;;2.17;1.00;;;20.00;67.50;;;;;;5061708;28;20107;-66
2021/07/31 04:25:15;;;;;;;4.05;1.08;;;20.10;67.60;;;;;;5070606;28;20065;-67
2021/07/31 04:27:42;;;;;;;4.82;1.33;;;20.00;67.40;;;;;;5057412;28;20067;-67
2021/07/31 04:30:07;;;;;;;5.63;1.42;;;20.00;67.30;;;;;;5052166;28;20044;-67
2021/07/31 04:32:33;;;;;;;4.13;1.40;;;20.00;67.70;;;;;;5053310;28;20029;-67
2021/07/31 04:35:00;;;;;;;6.32;1.58;;;20.00;67.90;;;;;;5066632;28;20436;-66
2021/07/31 04:37:26;;;;;;;3.50;1.20;;;20.00;67.90;;;;;;5072073;28;20032;-67
2021/07/31 04:39:51;;;;;;;3.10;1.20;;;20.00;67.80;;;;;;5073368;28;20029;-67
2021/07/31 04:42:17;;;;;;;4.72;1.50;;;20.00;68.00;;;;;;5063735;28;20048;-66
2021/07/31 04:44:42;;;;;;;5.25;1.50;;;20.00;67.90;;;;;;5058887;28;20036;-67
2021/07/31 04:47:08;;;;;;;5.45;1.60;;;20.00;67.80;;;;;;5064260;28;20024;-68
2021/07/31 04:49:37;;;;;;;4.10;1.40;;;20.00;67.80;;;;;;5053142;28;20021;-67
2021/07/31 04:52:06;;;;;;;4.28;1.63;;;20.00;68.10;;;;;;5065845;28;20021;-67
2021/07/31 04:54:31;;;;;;;2.50;1.10;;;20.00;68.00;;;;;;5051527;28;20032;-67
2021/07/31 04:56:57;;;;;;;5.13;1.30;;;20.00;68.00;;;;;;5051811;28;20437;-67
2021/07/31 04:59:22;;;;;;;6.05;1.50;;;20.00;68.20;;;;;;5051676;28;20120;-67
2021/07/31 05:01:48;;;;;;;3.58;1.30;;;20.00;68.20;;;;;;5054736;28;20056;-67
2021/07/31 05:04:13;;;;;;;3.50;1.40;;;20.00;68.40;;;;;;5072268;28;20666;-64
2021/07/31 05:06:39;;;;;;;4.63;1.58;;;20.00;68.30;;;;;;5067326;28;20024;-67
2021/07/31 05:09:06;;;;;;;4.88;1.58;;;20.00;68.60;;;;;;5060850;28;20155;-67
2021/07/31 05:11:31;;;;;;;4.13;1.40;;;20.00;68.30;;;;;;5064536;28;20029;-67
2021/07/31 05:13:57;;;;;;;3.35;1.15;;;20.00;68.40;;;;;;5055357;28;20713;-67
2021/07/31 05:16:25;;;;;;;4.20;1.25;;;20.00;68.80;;;;;;5071779;28;20029;-66
2021/07/31 05:18:51;;;;;;;4.68;1.30;;;20.00;68.60;;;;;;5071395;28;20036;-67
2021/07/31 05:21:16;;;;;;;3.67;1.30;;;20.00;68.50;;;;;;5072189;28;20029;-67
2021/07/31 05:23:42;;;;;;;5.88;1.40;;;20.00;68.50;;;;;;5072525;28;20505;-67
2021/07/31 05:26:09;;;;;;;3.25;1.40;;;20.00;68.50;;;;;;5071693;28;20037;-66
2021/07/31 05:28:35;;;;;;;3.65;1.40;;;20.00;68.40;;;;;;5063771;28;20036;-67
2021/07/31 05:31:00;;;;;;;3.92;1.50;;;20.00;68.40;;;;;;5070573;28;20028;-67
2021/07/31 05:33:26;;;;;;;3.75;1.30;;;20.00;68.40;;;;;;5072341;28;20028;-67
2021/07/31 05:35:52;;;;;;;4.53;1.30;;;20.00;68.40;;;;;;5071885;28;20029;-67
2021/07/31 05:38:18;;;;;;;4.43;1.50;;;20.00;68.40;;;;;;5070740;28;20046;-68
2021/07/31 05:40:43;;;;;;;3.72;1.15;;;20.00;68.30;;;;;;5070303;28;20024;-68
2021/07/31 05:43:09;;;;;;;4.28;1.30;;;20.00;68.50;;;;;;5070816;28;20024;-68
2021/07/31 05:45:34;;;;;;;2.72;1.10;;;20.00;68.40;;;;;;5071306;28;20032;-67
2021/07/31 05:48:00;;;;;;;3.55;1.30;;;20.00;68.40;;;;;;5070815;28;20052;-68
2021/07/31 05:50:26;;;;;;;4.55;1.25;;;20.00;68.40;;;;;;5070378;28;20020;-68
2021/07/31 05:52:51;;;;;;;4.00;1.30;;;20.00;68.50;;;;;;5065204;22;20045;-71
2021/07/31 05:55:17;;;;;;;4.32;1.20;;;20.00;68.10;;;;;;5049555;28;20032;-71
2021/07/31 05:57:43;;;;;;;6.45;1.42;;;20.00;68.20;;;;;;5051896;28;20034;-71
2021/07/31 06:00:09;;;;;;;6.57;1.20;;;20.00;68.50;;;;;;5033468;28;20052;-71
2021/07/31 06:02:35;;;;;;;3.15;1.20;;;20.00;68.20;;;;;;5048680;28;20119;-71
2021/07/31 06:05:00;;;;;;;5.72;1.40;;;20.00;68.40;;;;;;5046468;28;20618;-70
2021/07/31 06:07:26;;;;;;;4.72;1.50;;;20.00;68.30;;;;;;5044321;28;20470;-69
2021/07/31 06:09:53;;;;;;;5.43;1.45;;;20.00;68.40;;;;;;5044928;28;20090;-69
2021/07/31 06:12:20;;;;;;;4.05;1.48;;;20.10;68.00;;;;;;5044776;28;20402;-70
2021/07/31 06:14:47;;;;;;;4.13;1.33;;;20.10;68.20;;;;;;5044369;28;20035;-71
2021/07/31 06:17:13;;;;;;;4.00;1.40;;;20.10;67.90;;;;;;5044661;28;20029;-70
2021/07/31 06:19:38;;;;;;;4.25;1.45;;;20.10;68.00;;;;;;5032038;28;20045;-70
2021/07/31 06:22:04;;;;;;;5.57;1.58;;;20.10;68.10;;;;;;5025921;28;20025;-69
2021/07/31 06:24:30;;;;;;;4.25;1.65;;;20.10;68.00;;;;;;5035520;28;20029;-70
2021/07/31 06:26:56;;;;;;;4.57;1.50;;;20.10;68.20;;;;;;5045436;28;20493;-70
2021/07/31 06:29:21;;;;;;;4.68;1.50;;;20.10;68.10;;;;;;5045640;28;20029;-69
2021/07/31 06:31:47;;;;;;;3.67;1.30;;;20.00;68.10;;;;;;5045590;28;20036;-70
2021/07/31 06:34:13;;;;;;;2.70;1.30;;;20.10;68.00;;;;;;5044691;28;20025;-70
2021/07/31 06:36:39;;;;;;;3.70;1.30;;;20.00;67.40;;;;;;5044038;28;20044;-69
2021/07/31 06:39:05;;;;;;;4.13;1.55;;;20.10;67.70;;;;;;5043956;28;20063;-69
2021/07/31 06:41:31;;;;;;;5.53;1.60;;;20.00;68.10;;;;;;5036762;28;20053;-70
2021/07/31 06:43:58;;;;;;;3.95;1.30;;;20.10;68.20;;;;;;5024478;28;20017;-69
2021/07/31 06:46:24;;;;;;;3.70;1.48;;;20.10;68.00;;;;;;5044725;28;20100;-71
2021/07/31 06:48:52;;;;;;;4.70;1.40;;;20.10;67.80;;;;;;5036848;28;20175;-74
2021/07/31 06:51:19;;;;;;;5.35;1.10;;;20.10;67.80;;;;;;5035528;28;20029;-71
2021/07/31 06:53:45;;;;;;;3.95;1.30;;;20.10;68.40;;;;;;5032374;28;20495;-70
2021/07/31 06:56:11;;;;;;;5.88;1.77;;;20.10;68.40;;;;;;5043588;28;20044;-70
2021/07/31 06:58:36;;;;;;;6.22;1.63;;;20.10;68.60;;;;;;5044589;28;20482;-69
2021/07/31 07:01:02;;;;;;;5.10;1.40;;;20.10;68.60;;;;;;5037385;28;20111;-72
2021/07/31 07:03:27;;;;;;;6.50;1.40;;;20.10;68.80;;;;;;5044992;28;20044;-71
2021/07/31 07:05:53;;;;;;;4.03;1.38;;;20.10;68.90;;;;;;5042712;28;20132;-71
2021/07/31 07:08:18;;;;;;;5.53;1.70;;;20.10;69.00;;;;;;5046177;28;20029;-70
2021/07/31 07:10:44;;;;;;;6.93;2.08;;;20.10;69.10;;;;;;5047466;28;20436;-71
2021/07/31 07:13:09;;;;;;;10.27;1.50;;;20.20;69.30;;;;;;5047181;28;20070;-72
2021/07/31 07:15:35;;;;;;;7.55;1.80;;;20.30;69.60;;;;;;5047834;28;20047;-71
2021/07/31 07:18:01;;;;;;;4.35;1.33;;;20.30;69.70;;;;;;5049227;28;20474;-72
2021/07/31 07:20:27;;;;;;;3.72;1.50;;;20.30;68.80;;;;;;5042328;28;20029;-70
2021/07/31 07:22:53;;;;;;;7.00;1.50;;;20.40;68.90;;;;;;5037097;28;20037;-71
2021/07/31 07:25:18;;;;;;;6.28;1.50;;;20.40;68.70;;;;;;5033279;28;20036;-72
2021/07/31 07:27:44;;;;;;;5.28;1.63;;;20.50;68.70;;;;;;5038533;28;20021;-72
2021/07/31 07:30:11;;;;;;;6.70;1.50;;;20.60;67.60;;;;;;5038292;28;20029;-70
2021/07/31 07:32:37;;;;;;;6.13;1.60;;;20.60;67.70;;;;;;5033035;28;20045;-70
2021/07/31 07:35:06;;;;;;;5.78;1.70;;;20.60;68.00;;;;;;5043303;28;20033;-69
2021/07/31 07:37:32;;;;;;;5.70;1.55;;;20.60;68.20;;;;;;5030208;28;20036;-70
2021/07/31 07:40:01;;;;;;;5.68;1.63;;;20.60;68.20;;;;;;5043044;28;20029;-71
2021/07/31 07:42:26;;;;;;;4.50;1.17;;;20.60;68.50;;;;;;5042528;28;20021;-70
2021/07/31 07:44:52;;;;;;;7.05;1.50;;;20.50;68.20;;;;;;5041050;28;20032;-72
2021/07/31 07:47:18;;;;;;;5.32;1.65;;;20.60;68.70;;;;;;5042247;28;20250;-72
2021/07/31 07:49:43;;;;;;;4.68;1.55;;;20.60;68.80;;;;;;5027192;28;20053;-70
2021/07/31 07:52:09;;;;;;;6.55;1.90;;;20.60;68.50;;;;;;5027068;28;20487;-69
2021/07/31 07:54:34;;;;;;;4.22;1.40;;;20.60;69.00;;;;;;5029676;28;20406;-71
2021/07/31 07:57:05;;;;;;;9.43;1.75;;;20.60;68.50;;;;;;5041118;28;20043;-69
2021/07/31 07:59:30;;;;;;;6.00;1.63;;;20.70;68.80;;;;;;5029426;28;20074;-72
2021/07/31 08:01:56;;;;;;;7.60;1.80;;;20.70;68.50;;;;;;5035462;28;20041;-71
2021/07/31 08:04:21;;;;;;;11.00;1.80;;;20.70;68.50;;;;;;5049211;28;20033;-71
2021/07/31 08:06:47;;;;;;;7.28;1.60;;;20.70;68.90;;;;;;5039449;28;20096;-71
2021/07/31 08:09:12;;;;;;;9.20;1.70;;;20.70;68.80;;;;;;5047400;28;20583;-70
2021/07/31 08:11:42;;;;;;;12.15;2.00;;;20.70;68.90;;;;;;5029708;28;20029;-70
2021/07/31 08:14:08;;;;;;;10.13;1.92;;;20.70;69.20;;;;;;5047418;28;20107;-70
2021/07/31 08:16:34;;;;;;;8.38;1.77;;;20.70;68.50;;;;;;5048170;28;20593;-70
2021/07/31 08:18:59;;;;;;;5.28;1.60;;;20.80;68.30;;;;;;5035810;28;20026;-70
2021/07/31 08:21:25;;;;;;;5.80;1.73;;;20.90;68.00;;;;;;5029782;28;20033;-72
2021/07/31 08:23:50;;;;;;;4.93;1.80;;;21.10;67.20;;;;;;5025901;28;20052;-69
2021/07/31 08:26:16;;;;;;;10.40;2.20;;;21.10;67.80;;;;;;5026681;28;20096;-70
2021/07/31 08:28:45;;;;;;;10.75;1.92;;;21.10;67.80;;;;;;5026891;28;20479;-71
2021/07/31 08:31:12;;;;;;;7.60;1.60;;;21.20;68.00;;;;;;5026657;28;20040;-71
2021/07/31 08:33:38;;;;;;;10.13;2.17;;;21.30;67.50;;;;;;5027275;28;20483;-70
2021/07/31 08:36:04;;;;;;;7.68;1.95;;;21.20;66.70;;;;;;5026855;28;20487;-70
2021/07/31 08:38:30;;;;;;;6.53;1.60;;;21.30;67.30;;;;;;5026234;28;20486;-71
2021/07/31 08:40:55;;;;;;;6.25;1.58;;;21.30;67.20;;;;;;5025726;28;20025;-70
2021/07/31 08:43:21;;;;;;;7.22;1.63;;;21.20;67.30;;;;;;5026862;28;20064;-71
2021/07/31 08:45:47;;;;;;;7.03;1.73;;;21.30;67.40;;;;;;5026854;28;20506;-72
2021/07/31 08:48:14;;;;;;;7.03;1.63;;;21.30;67.40;;;;;;5026839;28;20395;-72
2021/07/31 08:50:40;;;;;;;6.82;1.73;;;21.20;67.50;;;;;;5025946;28;20052;-73
2021/07/31 08:53:06;;;;;;;6.50;1.73;;;21.20;67.40;;;;;;5026967;28;20048;-71
2021/07/31 08:55:32;;;;;;;7.88;1.88;;;21.40;67.70;;;;;;5026682;28;20029;-72
2021/07/31 08:58:00;;;;;;;6.10;1.92;;;21.60;66.50;;;;;;5025419;28;20399;-71
2021/07/31 09:00:26;;;;;;;6.72;1.92;;;21.70;66.00;;;;;;5026518;28;20049;-70
2021/07/31 09:02:51;;;;;;;4.70;1.55;;;21.80;66.80;;;;;;5026647;28;20526;-70
2021/07/31 09:05:32;;;;;;;6.10;1.70;;;21.90;65.90;;;;;;5026404;28;20030;-70
2021/07/31 09:08:02;;;;;;;4.55;1.38;;;21.90;65.70;;;;;;5025262;28;20025;-71
2021/07/31 09:10:29;;;;;;;3.92;1.60;;;21.90;65.70;;;;;;5028008;28;20029;-70
2021/07/31 09:13:09;;;;;;;3.08;1.63;;;21.90;65.30;;;;;;5034031;28;20035;-71
2021/07/31 09:15:43;;;;;;;5.80;1.85;;;21.90;65.80;;;;;;5034464;28;20052;-70
2021/07/31 09:18:18;;;;;;;6.15;1.75;;;21.90;64.90;;;;;;5032057;28;20042;-71
2021/07/31 09:20:43;;;;;;;5.15;1.50;;;21.80;65.90;;;;;;5026316;28;20486;-70
2021/07/31 09:23:09;;;;;;;4.55;1.65;;;21.80;65.80;;;;;;5024802;28;20034;-71
2021/07/31 09:25:36;;;;;;;7.03;1.85;;;21.70;66.30;;;;;;5025643;28;20063;-69
2021/07/31 09:28:18;;;;;;;8.45;1.85;;;21.70;66.40;;;;;;5026326;28;20021;-70
2021/07/31 09:30:51;;;;;;;5.72;1.70;;;21.80;66.50;;;;;;5037116;28;20506;-72
2021/07/31 09:33:20;;;;;;;6.63;1.55;;;21.90;65.50;;;;;;5046035;28;20087;-70
2021/07/31 09:35:47;;;;;;;7.70;2.15;;;21.90;66.00;;;;;;5042523;28;20036;-71
2021/07/31 09:38:12;;;;;;;5.45;1.70;;;21.90;66.10;;;;;;5038740;28;20067;-69
2021/07/31 09:40:38;;;;;;;7.07;1.65;;;21.80;66.00;;;;;;5037469;28;20036;-69
2021/07/31 09:43:15;;;;;;;5.80;1.77;;;21.80;66.30;;;;;;5029715;28;20048;-70
2021/07/31 09:45:42;;;;;;;7.00;1.80;;;21.80;66.50;;;;;;5038354;28;20033;-71
2021/07/31 09:48:08;;;;;;;7.47;2.03;;;21.70;66.50;;;;;;5040533;28;20503;-71
2021/07/31 09:50:38;;;;;;;4.55;1.67;;;21.70;66.80;;;;;;5036282;28;20024;-70
2021/07/31 09:53:15;;;;;;;7.03;2.08;;;21.70;66.40;;;;;;5034941;28;20033;-70
2021/07/31 09:55:48;;;;;;;7.43;1.70;;;21.90;66.10;;;;;;5023448;28;20048;-71
2021/07/31 09:58:15;;;;;;;7.97;1.60;;;22.00;66.10;;;;;;5025739;28;20499;-70
2021/07/31 10:00:44;;;;;;;9.55;1.92;;;22.10;65.60;;;;;;5032921;28;20033;-69
2021/07/31 10:03:11;;;;;;;61.38;5.47;;;22.20;65.10;;;;;;5026776;28;20033;-72
2021/07/31 10:05:41;;;;;;;25.10;3.50;;;22.20;64.80;;;;;;5036149;28;20025;-71
2021/07/31 10:08:07;;;;;;;40.37;3.77;;;22.20;64.90;;;;;;5034726;28;20087;-71
2021/07/31 10:10:34;;;;;;;90.22;7.70;;;22.10;65.30;;;;;;5039029;28;20120;-70
2021/07/31 10:13:00;;;;;;;58.45;5.25;;;22.00;65.30;;;;;;5038977;28;20031;-76
2021/07/31 10:15:27;;;;;;;46.95;4.70;;;22.10;65.70;;;;;;5026154;28;20044;-71
2021/07/31 10:17:53;;;;;;;40.60;5.10;;;22.10;65.90;;;;;;5023961;28;20033;-70
2021/07/31 10:20:37;;;;;;;37.83;4.05;;;22.00;65.70;;;;;;5033335;28;20021;-71
2021/07/31 10:23:03;;;;;;;52.40;6.13;;;22.00;65.80;;;;;;5029399;28;20029;-71
2021/07/31 10:25:28;;;;;;;59.20;6.80;;;22.00;65.80;;;;;;5031871;28;20031;-70
2021/07/31 10:28:25;;;;;;;51.55;6.43;;;22.00;66.10;;;;;;5044550;28;20029;-71
2021/07/31 10:30:51;;;;;;;83.15;9.13;;;22.00;65.60;;;;;;5052781;28;20438;-71
2021/07/31 10:33:42;;;;;;;74.40;8.27;;;22.00;65.80;;;;;;5044962;28;20031;-71
2021/07/31 10:36:26;;;;;;;97.60;10.88;;;22.00;65.80;;;;;;5044628;28;20033;-70
2021/07/31 10:38:52;;;;;;;101.55;10.23;;;22.00;65.80;;;;;;5033636;28;20029;-70
2021/07/31 10:41:53;;;;;;;102.47;10.75;;;22.00;66.10;;;;;;5029121;28;20521;-70
2021/07/31 10:44:18;;;;;;;100.20;11.30;;;22.00;66.30;;;;;;5029124;28;20037;-70
2021/07/31 10:46:44;;;;;;;108.43;12.27;;;22.00;66.20;;;;;;5035559;28;20022;-72
2021/07/31 10:49:32;;;;;;;98.40;10.50;;;22.00;66.40;;;;;;5037117;28;20456;-71
2021/07/31 10:51:57;;;;;;;66.22;9.23;;;22.00;66.40;;;;;;5037726;28;20129;-69
2021/07/31 10:55:00;;;;;;;80.57;9.75;;;22.00;66.30;;;;;;5033664;28;20763;-71
2021/07/31 10:57:54;;;;;;;66.95;8.57;;;22.00;66.30;;;;;;5036250;28;20029;-70
2021/07/31 11:00:34;;;;;;;52.55;7.30;;;22.00;66.30;;;;;;5035180;28;20021;-71
2021/07/31 11:03:03;;;;;;;68.65;8.55;;;22.00;66.30;;;;;;5036738;28;20112;-70
2021/07/31 11:05:49;;;;;;;41.92;5.47;;;21.90;66.40;;;;;;5036226;28;20036;-70
2021/07/31 11:08:15;;;;;;;58.97;8.40;;;21.90;66.40;;;;;;5038705;28;20026;-73
2021/07/31 11:10:42;;;;;;;48.20;7.03;;;21.90;66.70;;;;;;5034242;28;20033;-70
2021/07/31 11:13:12;;;;;;;53.75;7.53;;;21.90;66.80;;;;;;5045520;28;20029;-72
2021/07/31 11:16:04;;;;;;;58.97;7.63;;;22.00;66.90;;;;;;5046576;28;20037;-70
2021/07/31 11:18:36;;;;;;;30.73;4.97;;;22.00;66.70;;;;;;5032740;28;20033;-71
2021/07/31 11:21:21;;;;;;;49.30;6.40;;;22.00;66.40;;;;;;5036852;28;20029;-73
2021/07/31 11:23:49;;;;;;;43.08;6.20;;;21.90;67.00;;;;;;5035501;28;20387;-71
2021/07/31 11:26:32;;;;;;;38.75;6.03;;;21.90;67.10;;;;;;5038340;28;20029;-70
2021/07/31 11:28:59;;;;;;;36.83;5.45;;;21.90;67.00;;;;;;5036371;28;20029;-71
2021/07/31 11:31:24;;;;;;;49.28;6.25;;;21.90;67.00;;;;;;5032953;28;20025;-70
2021/07/31 11:34:02;;;;;;;55.63;6.72;;;21.90;67.20;;;;;;5047131;28;20028;-70
2021/07/31 11:36:28;;;;;;;154.32;13.88;;;21.90;67.40;;;;;;5046642;28;20025;-71
2021/07/31 11:38:54;;;;;;;285.13;22.20;;;21.80;67.30;;;;;;5038821;28;20029;-68
2021/07/31 11:41:20;;;;;;;458.05;32.67;;;21.80;67.30;;;;;;5041964;28;20039;-71
2021/07/31 11:43:53;;;;;;;354.98;27.52;;;21.80;67.40;;;;;;5033394;28;20549;-70
2021/07/31 11:46:32;;;;;;;301.45;22.70;;;21.80;67.40;;;;;;5059121;28;20024;-70
2021/07/31 11:49:22;;;;;;;289.10;22.73;;;21.80;67.80;;;;;;5059875;28;20028;-70
2021/07/31 11:51:48;;;;;;;230.05;18.67;;;21.80;67.80;;;;;;5043852;28;20037;-72
2021/07/31 11:54:13;;;;;;;214.65;17.98;;;21.80;67.80;;;;;;5040842;28;20603;-70
2021/07/31 11:56:41;;;;;;;145.32;13.27;;;21.80;67.90;;;;;;5036975;28;20033;-69
2021/07/31 11:59:08;;;;;;;240.98;22.35;;;21.80;67.90;;;;;;5040260;28;20020;-69
2021/07/31 12:01:35;;;;;;;320.17;26.10;;;21.80;67.80;;;;;;5032009;28;20040;-70
2021/07/31 12:04:01;;;;;;;291.90;24.10;;;21.80;68.20;;;;;;5035596;28;20017;-70
2021/07/31 12:06:35;;;;;;;265.05;21.85;;;21.80;67.90;;;;;;5036412;28;20032;-70
2021/07/31 12:09:06;;;;;;;269.13;23.05;;;21.80;68.00;;;;;;5037462;28;20566;-71
2021/07/31 12:11:33;;;;;;;234.38;22.65;;;21.80;68.00;;;;;;5035828;28;20065;-70
2021/07/31 12:13:59;;;;;;;240.80;20.67;;;21.80;68.10;;;;;;5033528;28;20446;-71
2021/07/31 12:16:28;;;;;;;227.88;21.73;;;21.70;68.30;;;;;;5033975;28;20034;-71
2021/07/31 12:18:53;;;;;;;257.15;20.08;;;21.70;68.40;;;;;;5033763;28;20088;-70
2021/07/31 12:21:26;;;;;;;314.58;26.05;;;21.70;68.40;;;;;;5035882;28;20028;-71
2021/07/31 12:23:52;;;;;;;341.63;26.63;;;21.70;68.80;;;;;;5033205;28;20036;-70
2021/07/31 12:26:32;;;;;;;383.83;31.30;;;21.70;68.60;;;;;;5038151;28;20116;-71
2021/07/31 12:28:58;;;;;;;392.83;32.77;;;21.70;68.50;;;;;;5037348;28;20376;-70
2021/07/31 12:31:28;;;;;;;387.95;33.53;;;21.70;68.50;;;;;;5034553;28;20021;-70
2021/07/31 12:33:56;;;;;;;372.67;30.27;;;21.70;68.70;;;;;;5033484;28;20021;-71
2021/07/31 12:36:22;;;;;;;292.65;23.58;;;21.60;68.40;;;;;;5061110;28;20035;-71
2021/07/31 12:38:48;;;;;;;300.10;24.67;;;21.60;68.80;;;;;;5046656;28;20025;-71
2021/07/31 12:41:14;;;;;;;270.92;24.90;;;21.60;68.70;;;;;;5044515;28;20379;-70
2021/07/31 12:43:40;;;;;;;261.70;22.17;;;21.60;68.80;;;;;;5045941;28;20027;-70